sensor_id;sensor_type;location;lat;lon;timestamp;temperature;humidity
10468;DHT22;5281;48.878;9.394;2023-06-22T00:00:52;22.60;99.90
10468;DHT22;5281;48.878;9.394;2023-06-22T00:03:21;22.70;99.90
10468;DHT22;5281;48.878;9.394;2023-06-22T00:05:48;22.60;99.90
10468;DHT22;5281;48.878;9.394;2023-06-22T00:08:16;22.60;99.90
10468;DHT22;5281;48.878;9.394;2023-06-22T00:10:44;22.60;99.90
10468;DHT22;5281;48.878;9.394;2023-06-22T00:13:12;22.60;99.90
10468;DHT22;5281;48.878;9.394;2023-06-22T00:15:41;22.50;99.90
10468;DHT22;5281;48.878;9.394;2023-06-22T00:18:09;22.50;99.90
10468;DHT22;5281;48.878;9.394;2023-06-22T00:20:36;22.50;99.90
10468;DHT22;5281;48.878;9.394;2023-06-22T00:23:04;22.50;99.90
10468;DHT22;5281;48.878;9.394;2023-06-22T00:25:33;22.50;99.90
10468;DHT22;5281;48.878;9.394;2023-06-22T00:28:00;22.50;99.90
10468;DHT22;5281;48.878;9.394;2023-06-22T00:30:27;22.50;99.90
10468;DHT22;5281;48.878;9.394;2023-06-22T00:32:55;22.40;99.90
10468;DHT22;5281;48.878;9.394;2023-06-22T00:35:22;22.40;99.90
10468;DHT22;5281;48.878;9.394;2023-06-22T00:37:48;22.40;99.90
10468;DHT22;5281;48.878;9.394;2023-06-22T00:40:23;22.40;99.90
10468;DHT22;5281;48.878;9.394;2023-06-22T00:42:49;22.30;99.90
10468;DHT22;5281;48.878;9.394;2023-06-22T00:45:16;22.30;99.90
10468;DHT22;5281;48.878;9.394;2023-06-22T00:47:43;22.20;99.90
10468;DHT22;5281;48.878;9.394;2023-06-22T00:50:15;22.20;99.90
10468;DHT22;5281;48.878;9.394;2023-06-22T00:52:47;22.10;99.90
10468;DHT22;5281;48.878;9.394;2023-06-22T00:55:14;22.00;99.90
10468;DHT22;5281;48.878;9.394;2023-06-22T00:57:43;22.00;99.90
10468;DHT22;5281;48.878;9.394;2023-06-22T01:00:12;21.90;99.90
10468;DHT22;5281;48.878;9.394;2023-06-22T01:02:45;21.90;99.90
10468;DHT22;5281;48.878;9.394;2023-06-22T01:05:17;21.90;99.90
10468;DHT22;5281;48.878;9.394;2023-06-22T01:07:55;21.80;99.90
10468;DHT22;5281;48.878;9.394;2023-06-22T01:10:27;21.80;99.90
10468;DHT22;5281;48.878;9.394;2023-06-22T01:13:00;21.80;99.90
10468;DHT22;5281;48.878;9.394;2023-06-22T01:15:31;21.80;99.90
10468;DHT22;5281;48.878;9.394;2023-06-22T01:17:59;21.70;99.90
10468;DHT22;5281;48.878;9.394;2023-06-22T01:20:31;21.60;99.90
10468;DHT22;5281;48.878;9.394;2023-06-22T01:23:07;21.50;99.90
10468;DHT22;5281;48.878;9.394;2023-06-22T01:25:43;21.40;99.90
10468;DHT22;5281;48.878;9.394;2023-06-22T01:28:24;21.50;99.90
10468;DHT22;5281;48.878;9.394;2023-06-22T01:30:54;21.50;99.90
10468;DHT22;5281;48.878;9.394;2023-06-22T01:33:29;21.60;99.90
10468;DHT22;5281;48.878;9.394;2023-06-22T01:35:57;21.60;99.90
10468;DHT22;5281;48.878;9.394;2023-06-22T01:38:25;21.60;99.90
10468;DHT22;5281;48.878;9.394;2023-06-22T01:40:52;21.50;99.90
10468;DHT22;5281;48.878;9.394;2023-06-22T01:43:20;21.50;99.90
10468;DHT22;5281;48.878;9.394;2023-06-22T01:45:48;21.50;99.90
10468;DHT22;5281;48.878;9.394;2023-06-22T01:48:17;21.40;99.90
10468;DHT22;5281;48.878;9.394;2023-06-22T01:50:44;21.40;99.90
10468;DHT22;5281;48.878;9.394;2023-06-22T01:53:11;21.30;99.90
10468;DHT22;5281;48.878;9.394;2023-06-22T01:55:37;21.40;99.90
10468;DHT22;5281;48.878;9.394;2023-06-22T01:58:04;21.40;99.90
10468;DHT22;5281;48.878;9.394;2023-06-22T02:00:33;21.40;99.90
10468;DHT22;5281;48.878;9.394;2023-06-22T02:03:05;21.40;99.90
10468;DHT22;5281;48.878;9.394;2023-06-22T02:05:38;21.30;99.90
10468;DHT22;5281;48.878;9.394;2023-06-22T02:08:09;21.30;99.90
10468;DHT22;5281;48.878;9.394;2023-06-22T02:10:38;21.30;99.90
10468;DHT22;5281;48.878;9.394;2023-06-22T02:13:08;21.30;99.90
10468;DHT22;5281;48.878;9.394;2023-06-22T02:15:36;21.30;99.90
10468;DHT22;5281;48.878;9.394;2023-06-22T02:18:03;21.30;99.90
10468;DHT22;5281;48.878;9.394;2023-06-22T02:20:30;21.40;99.90
10468;DHT22;5281;48.878;9.394;2023-06-22T02:22:58;21.30;99.90
10468;DHT22;5281;48.878;9.394;2023-06-22T02:25:25;21.30;99.90
10468;DHT22;5281;48.878;9.394;2023-06-22T02:27:52;21.30;99.90
10468;DHT22;5281;48.878;9.394;2023-06-22T02:30:18;21.30;99.90
10468;DHT22;5281;48.878;9.394;2023-06-22T02:32:45;21.30;99.90
10468;DHT22;5281;48.878;9.394;2023-06-22T02:35:12;21.30;99.90
10468;DHT22;5281;48.878;9.394;2023-06-22T02:37:39;21.30;99.90
10468;DHT22;5281;48.878;9.394;2023-06-22T02:40:09;21.30;99.90
10468;DHT22;5281;48.878;9.394;2023-06-22T02:42:36;21.30;99.90
10468;DHT22;5281;48.878;9.394;2023-06-22T02:45:03;21.30;99.90
10468;DHT22;5281;48.878;9.394;2023-06-22T02:47:30;21.20;99.90
10468;DHT22;5281;48.878;9.394;2023-06-22T02:49:57;21.30;99.90
10468;DHT22;5281;48.878;9.394;2023-06-22T02:52:23;21.20;99.90
10468;DHT22;5281;48.878;9.394;2023-06-22T02:54:50;21.20;99.90
10468;DHT22;5281;48.878;9.394;2023-06-22T02:57:18;21.10;99.90
10468;DHT22;5281;48.878;9.394;2023-06-22T02:59:45;21.00;99.90
10468;DHT22;5281;48.878;9.394;2023-06-22T03:02:12;20.90;99.90
10468;DHT22;5281;48.878;9.394;2023-06-22T03:04:38;20.80;99.90
10468;DHT22;5281;48.878;9.394;2023-06-22T03:07:05;20.80;99.90
10468;DHT22;5281;48.878;9.394;2023-06-22T03:09:32;20.70;99.90
10468;DHT22;5281;48.878;9.394;2023-06-22T03:11:58;20.70;99.90
10468;DHT22;5281;48.878;9.394;2023-06-22T03:14:27;20.70;99.90
10468;DHT22;5281;48.878;9.394;2023-06-22T03:16:53;20.60;99.90
10468;DHT22;5281;48.878;9.394;2023-06-22T03:19:20;20.60;99.90
10468;DHT22;5281;48.878;9.394;2023-06-22T03:21:47;20.70;99.90
10468;DHT22;5281;48.878;9.394;2023-06-22T03:24:14;20.70;99.90
10468;DHT22;5281;48.878;9.394;2023-06-22T03:26:40;20.70;99.90
10468;DHT22;5281;48.878;9.394;2023-06-22T03:29:07;20.70;99.90
10468;DHT22;5281;48.878;9.394;2023-06-22T03:31:35;20.60;99.90
10468;DHT22;5281;48.878;9.394;2023-06-22T03:34:02;20.60;99.90
10468;DHT22;5281;48.878;9.394;2023-06-22T03:36:28;20.60;99.90
10468;DHT22;5281;48.878;9.394;2023-06-22T03:38:55;20.60;99.90
10468;DHT22;5281;48.878;9.394;2023-06-22T03:41:22;20.60;99.90
10468;DHT22;5281;48.878;9.394;2023-06-22T03:43:48;20.60;99.90
10468;DHT22;5281;48.878;9.394;2023-06-22T03:46:15;20.60;99.90
10468;DHT22;5281;48.878;9.394;2023-06-22T03:48:44;20.60;99.90
10468;DHT22;5281;48.878;9.394;2023-06-22T03:51:11;20.50;99.90
10468;DHT22;5281;48.878;9.394;2023-06-22T03:53:38;20.50;99.90
10468;DHT22;5281;48.878;9.394;2023-06-22T03:56:05;20.60;99.90
10468;DHT22;5281;48.878;9.394;2023-06-22T03:58:31;20.60;99.90
10468;DHT22;5281;48.878;9.394;2023-06-22T04:00:59;20.60;99.90
10468;DHT22;5281;48.878;9.394;2023-06-22T04:03:26;20.70;99.90
10468;DHT22;5281;48.878;9.394;2023-06-22T04:05:54;20.70;99.90
10468;DHT22;5281;48.878;9.394;2023-06-22T04:08:21;20.80;99.90
10468;DHT22;5281;48.878;9.394;2023-06-22T04:10:47;21.00;99.90
10468;DHT22;5281;48.878;9.394;2023-06-22T04:13:15;21.10;99.90
10468;DHT22;5281;48.878;9.394;2023-06-22T04:15:41;21.20;99.90
10468;DHT22;5281;48.878;9.394;2023-06-22T04:18:08;21.40;99.90
10468;DHT22;5281;48.878;9.394;2023-06-22T04:20:35;21.60;99.90
10468;DHT22;5281;48.878;9.394;2023-06-22T04:23:03;21.70;99.90
10468;DHT22;5281;48.878;9.394;2023-06-22T04:25:29;21.90;99.90
10468;DHT22;5281;48.878;9.394;2023-06-22T04:27:56;22.10;99.90
10468;DHT22;5281;48.878;9.394;2023-06-22T04:30:23;22.30;99.90
10468;DHT22;5281;48.878;9.394;2023-06-22T04:32:50;22.50;99.90
10468;DHT22;5281;48.878;9.394;2023-06-22T04:35:23;22.60;99.90
10468;DHT22;5281;48.878;9.394;2023-06-22T04:37:50;22.90;99.90
10468;DHT22;5281;48.878;9.394;2023-06-22T04:40:21;23.00;99.90
10468;DHT22;5281;48.878;9.394;2023-06-22T04:42:48;23.30;99.90
10468;DHT22;5281;48.878;9.394;2023-06-22T04:45:19;23.50;99.90
10468;DHT22;5281;48.878;9.394;2023-06-22T04:47:46;23.90;99.90
10468;DHT22;5281;48.878;9.394;2023-06-22T04:50:13;24.50;99.90
10468;DHT22;5281;48.878;9.394;2023-06-22T04:52:40;25.40;99.90
10468;DHT22;5281;48.878;9.394;2023-06-22T04:55:07;26.20;99.90
10468;DHT22;5281;48.878;9.394;2023-06-22T04:57:35;27.00;99.90
10468;DHT22;5281;48.878;9.394;2023-06-22T05:00:05;27.70;99.90
10468;DHT22;5281;48.878;9.394;2023-06-22T05:02:38;28.40;99.90
10468;DHT22;5281;48.878;9.394;2023-06-22T05:05:05;28.90;99.90
10468;DHT22;5281;48.878;9.394;2023-06-22T05:07:32;29.50;99.90
10468;DHT22;5281;48.878;9.394;2023-06-22T05:09:59;30.10;99.90
10468;DHT22;5281;48.878;9.394;2023-06-22T05:12:27;30.50;99.90
10468;DHT22;5281;48.878;9.394;2023-06-22T05:14:56;30.80;99.90
10468;DHT22;5281;48.878;9.394;2023-06-22T05:17:23;30.90;99.90
10468;DHT22;5281;48.878;9.394;2023-06-22T05:19:50;31.30;99.90
10468;DHT22;5281;48.878;9.394;2023-06-22T05:22:17;31.90;99.90
10468;DHT22;5281;48.878;9.394;2023-06-22T05:24:45;32.60;99.90
10468;DHT22;5281;48.878;9.394;2023-06-22T05:27:12;33.20;99.90
10468;DHT22;5281;48.878;9.394;2023-06-22T05:29:39;33.70;99.10
10468;DHT22;5281;48.878;9.394;2023-06-22T05:32:08;34.20;97.20
10468;DHT22;5281;48.878;9.394;2023-06-22T05:34:34;34.30;96.60
10468;DHT22;5281;48.878;9.394;2023-06-22T05:37:02;34.60;95.90
10468;DHT22;5281;48.878;9.394;2023-06-22T05:39:28;35.00;94.20
10468;DHT22;5281;48.878;9.394;2023-06-22T05:41:55;35.10;92.70
10468;DHT22;5281;48.878;9.394;2023-06-22T05:44:22;34.50;93.10
10468;DHT22;5281;48.878;9.394;2023-06-22T05:46:49;34.10;93.60
10468;DHT22;5281;48.878;9.394;2023-06-22T05:49:17;34.10;93.60
10468;DHT22;5281;48.878;9.394;2023-06-22T05:51:44;34.30;93.10
10468;DHT22;5281;48.878;9.394;2023-06-22T05:54:10;34.70;92.20
10468;DHT22;5281;48.878;9.394;2023-06-22T05:56:38;35.00;91.50
10468;DHT22;5281;48.878;9.394;2023-06-22T05:59:05;35.30;90.50
10468;DHT22;5281;48.878;9.394;2023-06-22T06:01:32;35.80;89.50
10468;DHT22;5281;48.878;9.394;2023-06-22T06:04:01;36.30;86.30
10468;DHT22;5281;48.878;9.394;2023-06-22T06:06:30;36.30;85.10
10468;DHT22;5281;48.878;9.394;2023-06-22T06:08:57;36.50;84.60
10468;DHT22;5281;48.878;9.394;2023-06-22T06:11:24;36.90;83.80
10468;DHT22;5281;48.878;9.394;2023-06-22T06:13:51;37.30;80.70
10468;DHT22;5281;48.878;9.394;2023-06-22T06:16:18;37.50;80.30
10468;DHT22;5281;48.878;9.394;2023-06-22T06:18:45;38.00;78.70
10468;DHT22;5281;48.878;9.394;2023-06-22T06:21:11;38.60;75.60
10468;DHT22;5281;48.878;9.394;2023-06-22T06:23:39;38.40;74.40
10468;DHT22;5281;48.878;9.394;2023-06-22T06:26:06;37.70;75.20
10468;DHT22;5281;48.878;9.394;2023-06-22T06:28:33;37.00;76.80
10468;DHT22;5281;48.878;9.394;2023-06-22T06:30:59;36.40;78.10
10468;DHT22;5281;48.878;9.394;2023-06-22T06:33:26;35.60;79.10
10468;DHT22;5281;48.878;9.394;2023-06-22T06:35:53;35.00;81.50
10468;DHT22;5281;48.878;9.394;2023-06-22T06:38:21;34.60;83.00
10468;DHT22;5281;48.878;9.394;2023-06-22T06:40:49;34.40;83.50
10468;DHT22;5281;48.878;9.394;2023-06-22T06:43:15;34.40;83.60
10468;DHT22;5281;48.878;9.394;2023-06-22T06:45:42;34.90;82.80
10468;DHT22;5281;48.878;9.394;2023-06-22T06:48:09;35.60;80.80
10468;DHT22;5281;48.878;9.394;2023-06-22T06:50:36;36.60;78.50
10468;DHT22;5281;48.878;9.394;2023-06-22T06:53:02;37.30;75.40
10468;DHT22;5281;48.878;9.394;2023-06-22T06:55:30;37.90;73.30
10468;DHT22;5281;48.878;9.394;2023-06-22T06:58:06;38.60;71.20
10468;DHT22;5281;48.878;9.394;2023-06-22T07:00:35;39.30;68.80
10468;DHT22;5281;48.878;9.394;2023-06-22T07:03:02;39.70;67.30
10468;DHT22;5281;48.878;9.394;2023-06-22T07:05:29;39.70;66.30
10468;DHT22;5281;48.878;9.394;2023-06-22T07:07:55;39.10;67.10
10468;DHT22;5281;48.878;9.394;2023-06-22T07:10:22;38.80;67.50
10468;DHT22;5281;48.878;9.394;2023-06-22T07:12:49;39.20;66.80
10468;DHT22;5281;48.878;9.394;2023-06-22T07:15:17;39.60;66.20
10468;DHT22;5281;48.878;9.394;2023-06-22T07:17:43;40.30;64.30
10468;DHT22;5281;48.878;9.394;2023-06-22T07:20:11;41.10;62.00
10468;DHT22;5281;48.878;9.394;2023-06-22T07:22:39;41.40;60.50
10468;DHT22;5281;48.878;9.394;2023-06-22T07:25:06;42.00;59.70
10468;DHT22;5281;48.878;9.394;2023-06-22T07:27:36;42.50;57.90
10468;DHT22;5281;48.878;9.394;2023-06-22T07:30:04;42.70;58.40
10468;DHT22;5281;48.878;9.394;2023-06-22T07:32:33;42.70;56.80
10468;DHT22;5281;48.878;9.394;2023-06-22T07:34:59;42.90;55.80
10468;DHT22;5281;48.878;9.394;2023-06-22T07:37:27;42.40;56.30
10468;DHT22;5281;48.878;9.394;2023-06-22T07:39:54;42.00;56.50
10468;DHT22;5281;48.878;9.394;2023-06-22T07:42:24;42.00;56.10
10468;DHT22;5281;48.878;9.394;2023-06-22T07:44:50;41.90;56.00
10468;DHT22;5281;48.878;9.394;2023-06-22T07:47:17;41.70;56.30
10468;DHT22;5281;48.878;9.394;2023-06-22T07:49:46;41.90;56.30
10468;DHT22;5281;48.878;9.394;2023-06-22T07:52:13;42.40;55.70
10468;DHT22;5281;48.878;9.394;2023-06-22T07:54:39;42.70;54.20
10468;DHT22;5281;48.878;9.394;2023-06-22T07:57:06;42.50;54.00
10468;DHT22;5281;48.878;9.394;2023-06-22T07:59:33;42.00;54.60
10468;DHT22;5281;48.878;9.394;2023-06-22T08:01:59;41.80;54.90
10468;DHT22;5281;48.878;9.394;2023-06-22T08:04:28;41.80;54.80
10468;DHT22;5281;48.878;9.394;2023-06-22T08:06:57;42.10;54.80
10468;DHT22;5281;48.878;9.394;2023-06-22T08:09:24;42.10;53.80
10468;DHT22;5281;48.878;9.394;2023-06-22T08:11:51;41.70;53.80
10468;DHT22;5281;48.878;9.394;2023-06-22T08:14:18;41.30;54.70
10468;DHT22;5281;48.878;9.394;2023-06-22T08:16:44;41.40;55.00
10468;DHT22;5281;48.878;9.394;2023-06-22T08:19:11;41.60;54.40
10468;DHT22;5281;48.878;9.394;2023-06-22T08:21:38;41.20;54.50
10468;DHT22;5281;48.878;9.394;2023-06-22T08:24:07;41.10;54.50
10468;DHT22;5281;48.878;9.394;2023-06-22T08:26:33;41.30;54.30
10468;DHT22;5281;48.878;9.394;2023-06-22T08:29:02;41.90;53.40
10468;DHT22;5281;48.878;9.394;2023-06-22T08:31:29;42.10;53.00
10468;DHT22;5281;48.878;9.394;2023-06-22T08:33:56;41.90;52.80
10468;DHT22;5281;48.878;9.394;2023-06-22T08:36:22;41.70;53.60
10468;DHT22;5281;48.878;9.394;2023-06-22T08:38:49;41.80;53.20
10468;DHT22;5281;48.878;9.394;2023-06-22T08:41:18;42.30;52.40
10468;DHT22;5281;48.878;9.394;2023-06-22T08:43:45;42.40;52.00
10468;DHT22;5281;48.878;9.394;2023-06-22T08:46:12;42.10;52.00
10468;DHT22;5281;48.878;9.394;2023-06-22T08:48:39;41.80;52.10
10468;DHT22;5281;48.878;9.394;2023-06-22T08:51:06;41.90;51.90
10468;DHT22;5281;48.878;9.394;2023-06-22T08:53:32;41.80;51.90
10468;DHT22;5281;48.878;9.394;2023-06-22T08:56:00;41.30;52.70
10468;DHT22;5281;48.878;9.394;2023-06-22T08:58:28;40.90;53.20
10468;DHT22;5281;48.878;9.394;2023-06-22T09:00:55;40.50;54.00
10468;DHT22;5281;48.878;9.394;2023-06-22T09:03:22;40.00;54.30
10468;DHT22;5281;48.878;9.394;2023-06-22T09:05:51;39.30;55.90
10468;DHT22;5281;48.878;9.394;2023-06-22T09:08:18;38.50;57.10
10468;DHT22;5281;48.878;9.394;2023-06-22T09:10:45;37.90;58.00
10468;DHT22;5281;48.878;9.394;2023-06-22T09:13:12;37.40;58.90
10468;DHT22;5281;48.878;9.394;2023-06-22T09:15:40;37.10;59.70
10468;DHT22;5281;48.878;9.394;2023-06-22T09:18:09;36.90;59.70
10468;DHT22;5281;48.878;9.394;2023-06-22T09:20:36;36.70;60.60
10468;DHT22;5281;48.878;9.394;2023-06-22T09:23:03;36.50;61.10
10468;DHT22;5281;48.878;9.394;2023-06-22T09:25:30;36.10;62.10
10468;DHT22;5281;48.878;9.394;2023-06-22T09:27:56;35.60;64.00
10468;DHT22;5281;48.878;9.394;2023-06-22T09:30:23;35.10;64.90
10468;DHT22;5281;48.878;9.394;2023-06-22T09:32:51;34.90;65.40
10468;DHT22;5281;48.878;9.394;2023-06-22T09:35:18;34.80;65.90
10468;DHT22;5281;48.878;9.394;2023-06-22T09:37:45;35.00;66.40
10468;DHT22;5281;48.878;9.394;2023-06-22T09:40:12;34.90;67.60
10468;DHT22;5281;48.878;9.394;2023-06-22T09:42:42;34.60;68.60
10468;DHT22;5281;48.878;9.394;2023-06-22T09:45:09;34.40;68.80
10468;DHT22;5281;48.878;9.394;2023-06-22T09:47:36;34.10;69.10
10468;DHT22;5281;48.878;9.394;2023-06-22T09:50:05;34.00;69.60
10468;DHT22;5281;48.878;9.394;2023-06-22T09:52:32;34.00;70.20
10468;DHT22;5281;48.878;9.394;2023-06-22T09:54:59;34.10;70.00
10468;DHT22;5281;48.878;9.394;2023-06-22T09:57:26;34.10;69.90
10468;DHT22;5281;48.878;9.394;2023-06-22T09:59:53;34.00;70.00
10468;DHT22;5281;48.878;9.394;2023-06-22T10:02:20;34.00;70.50
10468;DHT22;5281;48.878;9.394;2023-06-22T10:04:47;34.00;70.80
10468;DHT22;5281;48.878;9.394;2023-06-22T10:07:16;33.80;71.50
10468;DHT22;5281;48.878;9.394;2023-06-22T10:09:43;33.50;72.40
10468;DHT22;5281;48.878;9.394;2023-06-22T10:12:09;33.40;72.90
10468;DHT22;5281;48.878;9.394;2023-06-22T10:14:36;33.60;72.60
10468;DHT22;5281;48.878;9.394;2023-06-22T10:17:03;33.40;72.80
10468;DHT22;5281;48.878;9.394;2023-06-22T10:19:32;33.30;72.90
10468;DHT22;5281;48.878;9.394;2023-06-22T10:21:59;33.50;72.80
10468;DHT22;5281;48.878;9.394;2023-06-22T10:24:27;33.80;72.30
10468;DHT22;5281;48.878;9.394;2023-06-22T10:26:54;33.90;72.10
10468;DHT22;5281;48.878;9.394;2023-06-22T10:29:20;34.10;71.40
10468;DHT22;5281;48.878;9.394;2023-06-22T10:31:47;34.40;70.20
10468;DHT22;5281;48.878;9.394;2023-06-22T10:34:14;34.70;69.40
10468;DHT22;5281;48.878;9.394;2023-06-22T10:36:41;35.10;68.50
10468;DHT22;5281;48.878;9.394;2023-06-22T10:39:07;35.20;68.50
10468;DHT22;5281;48.878;9.394;2023-06-22T10:41:36;35.40;68.40
10468;DHT22;5281;48.878;9.394;2023-06-22T10:44:03;35.70;67.30
10468;DHT22;5281;48.878;9.394;2023-06-22T10:46:29;35.90;67.00
10468;DHT22;5281;48.878;9.394;2023-06-22T10:48:56;36.10;66.70
10468;DHT22;5281;48.878;9.394;2023-06-22T10:51:24;36.00;66.80
10468;DHT22;5281;48.878;9.394;2023-06-22T10:53:51;35.80;67.30
10468;DHT22;5281;48.878;9.394;2023-06-22T10:56:18;35.90;65.90
10468;DHT22;5281;48.878;9.394;2023-06-22T10:58:46;35.90;65.30
10468;DHT22;5281;48.878;9.394;2023-06-22T11:01:13;35.80;65.20
10468;DHT22;5281;48.878;9.394;2023-06-22T11:03:40;35.70;64.80
10468;DHT22;5281;48.878;9.394;2023-06-22T11:06:06;35.80;65.70
10468;DHT22;5281;48.878;9.394;2023-06-22T11:08:33;35.90;65.00
10468;DHT22;5281;48.878;9.394;2023-06-22T11:11:00;36.10;65.10
10468;DHT22;5281;48.878;9.394;2023-06-22T11:13:26;36.20;64.60
10468;DHT22;5281;48.878;9.394;2023-06-22T11:15:54;36.10;64.10
10468;DHT22;5281;48.878;9.394;2023-06-22T11:18:21;36.00;65.00
10468;DHT22;5281;48.878;9.394;2023-06-22T11:20:48;36.00;65.10
10468;DHT22;5281;48.878;9.394;2023-06-22T11:23:15;36.00;66.40
10468;DHT22;5281;48.878;9.394;2023-06-22T11:25:42;36.00;66.00
10468;DHT22;5281;48.878;9.394;2023-06-22T11:28:08;36.00;66.50
10468;DHT22;5281;48.878;9.394;2023-06-22T11:30:35;35.80;66.90
10468;DHT22;5281;48.878;9.394;2023-06-22T11:33:03;35.80;67.30
10468;DHT22;5281;48.878;9.394;2023-06-22T11:35:30;35.80;64.90
10468;DHT22;5281;48.878;9.394;2023-06-22T11:37:56;35.90;65.20
10468;DHT22;5281;48.878;9.394;2023-06-22T11:40:23;36.00;65.10
10468;DHT22;5281;48.878;9.394;2023-06-22T11:42:50;36.30;63.60
10468;DHT22;5281;48.878;9.394;2023-06-22T11:45:17;36.60;62.60
10468;DHT22;5281;48.878;9.394;2023-06-22T11:47:46;36.80;62.00
10468;DHT22;5281;48.878;9.394;2023-06-22T11:50:14;36.90;61.60
10468;DHT22;5281;48.878;9.394;2023-06-22T11:52:41;36.90;61.60
10468;DHT22;5281;48.878;9.394;2023-06-22T11:55:07;36.90;61.90
10468;DHT22;5281;48.878;9.394;2023-06-22T11:57:35;36.90;61.60
10468;DHT22;5281;48.878;9.394;2023-06-22T12:00:03;37.00;62.20
10468;DHT22;5281;48.878;9.394;2023-06-22T12:02:40;37.00;61.80
10468;DHT22;5281;48.878;9.394;2023-06-22T12:05:07;37.00;62.10
10468;DHT22;5281;48.878;9.394;2023-06-22T12:07:35;37.00;62.10
10468;DHT22;5281;48.878;9.394;2023-06-22T12:10:03;37.00;61.70
10468;DHT22;5281;48.878;9.394;2023-06-22T12:12:30;36.90;61.90
10468;DHT22;5281;48.878;9.394;2023-06-22T12:14:57;36.80;62.10
10468;DHT22;5281;48.878;9.394;2023-06-22T12:17:28;36.70;62.50
10468;DHT22;5281;48.878;9.394;2023-06-22T12:19:55;36.60;63.70
10468;DHT22;5281;48.878;9.394;2023-06-22T12:22:22;36.70;64.80
10468;DHT22;5281;48.878;9.394;2023-06-22T12:24:50;36.70;64.90
10468;DHT22;5281;48.878;9.394;2023-06-22T12:27:17;36.50;66.20
10468;DHT22;5281;48.878;9.394;2023-06-22T12:29:45;36.50;66.90
10468;DHT22;5281;48.878;9.394;2023-06-22T12:32:13;36.20;67.20
10468;DHT22;5281;48.878;9.394;2023-06-22T12:34:41;36.10;67.60
10468;DHT22;5281;48.878;9.394;2023-06-22T12:37:08;36.00;68.20
10468;DHT22;5281;48.878;9.394;2023-06-22T12:39:35;35.90;69.30
10468;DHT22;5281;48.878;9.394;2023-06-22T12:42:03;35.80;70.00
10468;DHT22;5281;48.878;9.394;2023-06-22T12:44:30;35.50;70.80
10468;DHT22;5281;48.878;9.394;2023-06-22T12:46:57;35.40;71.60
10468;DHT22;5281;48.878;9.394;2023-06-22T12:49:24;35.20;71.80
10468;DHT22;5281;48.878;9.394;2023-06-22T12:51:50;35.20;72.40
10468;DHT22;5281;48.878;9.394;2023-06-22T12:54:17;35.10;72.60
10468;DHT22;5281;48.878;9.394;2023-06-22T12:56:44;34.90;73.10
10468;DHT22;5281;48.878;9.394;2023-06-22T12:59:12;34.70;74.00
10468;DHT22;5281;48.878;9.394;2023-06-22T13:01:39;34.50;74.60
10468;DHT22;5281;48.878;9.394;2023-06-22T13:04:06;34.40;75.30
10468;DHT22;5281;48.878;9.394;2023-06-22T13:06:33;34.10;76.40
10468;DHT22;5281;48.878;9.394;2023-06-22T13:09:00;34.00;78.00
10468;DHT22;5281;48.878;9.394;2023-06-22T13:11:26;33.90;79.00
10468;DHT22;5281;48.878;9.394;2023-06-22T13:13:53;33.80;79.10
10468;DHT22;5281;48.878;9.394;2023-06-22T13:16:21;33.80;78.40
10468;DHT22;5281;48.878;9.394;2023-06-22T13:18:48;33.90;78.40
10468;DHT22;5281;48.878;9.394;2023-06-22T13:21:15;34.10;78.00
10468;DHT22;5281;48.878;9.394;2023-06-22T13:23:41;34.10;77.80
10468;DHT22;5281;48.878;9.394;2023-06-22T13:26:08;34.20;77.30
10468;DHT22;5281;48.878;9.394;2023-06-22T13:28:35;34.10;77.90
10468;DHT22;5281;48.878;9.394;2023-06-22T13:31:01;34.10;78.00
10468;DHT22;5281;48.878;9.394;2023-06-22T13:33:30;34.00;78.80
10468;DHT22;5281;48.878;9.394;2023-06-22T13:35:56;33.90;78.70
10468;DHT22;5281;48.878;9.394;2023-06-22T13:38:23;34.10;78.30
10468;DHT22;5281;48.878;9.394;2023-06-22T13:40:50;34.30;78.20
10468;DHT22;5281;48.878;9.394;2023-06-22T13:43:17;34.60;78.20
10468;DHT22;5281;48.878;9.394;2023-06-22T13:45:44;34.90;78.30
10468;DHT22;5281;48.878;9.394;2023-06-22T13:48:11;35.10;76.40
10468;DHT22;5281;48.878;9.394;2023-06-22T13:50:39;35.30;75.50
10468;DHT22;5281;48.878;9.394;2023-06-22T13:53:05;35.40;75.20
10468;DHT22;5281;48.878;9.394;2023-06-22T13:55:32;35.40;75.00
10468;DHT22;5281;48.878;9.394;2023-06-22T13:57:59;35.50;75.30
10468;DHT22;5281;48.878;9.394;2023-06-22T14:00:25;35.20;75.30
10468;DHT22;5281;48.878;9.394;2023-06-22T14:02:53;35.20;75.90
10468;DHT22;5281;48.878;9.394;2023-06-22T14:05:20;35.20;75.50
10468;DHT22;5281;48.878;9.394;2023-06-22T14:07:48;35.40;75.00
10468;DHT22;5281;48.878;9.394;2023-06-22T14:10:15;35.70;75.00
10468;DHT22;5281;48.878;9.394;2023-06-22T14:12:42;35.70;75.60
10468;DHT22;5281;48.878;9.394;2023-06-22T14:15:08;35.50;75.60
10468;DHT22;5281;48.878;9.394;2023-06-22T14:17:35;35.40;75.50
10468;DHT22;5281;48.878;9.394;2023-06-22T14:20:03;35.50;75.90
10468;DHT22;5281;48.878;9.394;2023-06-22T14:22:31;35.50;76.10
10468;DHT22;5281;48.878;9.394;2023-06-22T14:24:59;35.70;75.50
10468;DHT22;5281;48.878;9.394;2023-06-22T14:27:25;35.80;75.10
10468;DHT22;5281;48.878;9.394;2023-06-22T14:29:52;35.80;74.80
10468;DHT22;5281;48.878;9.394;2023-06-22T14:32:19;36.00;74.60
10468;DHT22;5281;48.878;9.394;2023-06-22T14:34:45;36.20;74.00
10468;DHT22;5281;48.878;9.394;2023-06-22T14:37:12;36.30;74.20
10468;DHT22;5281;48.878;9.394;2023-06-22T14:39:39;36.30;74.10
10468;DHT22;5281;48.878;9.394;2023-06-22T14:42:08;36.30;73.30
10468;DHT22;5281;48.878;9.394;2023-06-22T14:44:35;36.20;68.30
10468;DHT22;5281;48.878;9.394;2023-06-22T14:47:02;36.00;69.30
10468;DHT22;5281;48.878;9.394;2023-06-22T14:49:28;35.90;70.20
10468;DHT22;5281;48.878;9.394;2023-06-22T14:51:55;35.90;68.40
10468;DHT22;5281;48.878;9.394;2023-06-22T14:54:22;36.10;68.80
10468;DHT22;5281;48.878;9.394;2023-06-22T14:56:50;36.20;67.00
10468;DHT22;5281;48.878;9.394;2023-06-22T14:59:18;36.30;66.90
10468;DHT22;5281;48.878;9.394;2023-06-22T15:01:45;36.30;66.50
10468;DHT22;5281;48.878;9.394;2023-06-22T15:04:11;36.20;65.90
10468;DHT22;5281;48.878;9.394;2023-06-22T15:06:38;36.00;65.00
10468;DHT22;5281;48.878;9.394;2023-06-22T15:09:06;35.80;66.20
10468;DHT22;5281;48.878;9.394;2023-06-22T15:11:32;35.60;66.30
10468;DHT22;5281;48.878;9.394;2023-06-22T15:13:59;35.40;65.40
10468;DHT22;5281;48.878;9.394;2023-06-22T15:16:27;35.20;65.00
10468;DHT22;5281;48.878;9.394;2023-06-22T15:18:54;35.10;65.20
10468;DHT22;5281;48.878;9.394;2023-06-22T15:21:21;35.10;65.00
10468;DHT22;5281;48.878;9.394;2023-06-22T15:23:48;34.90;65.80
10468;DHT22;5281;48.878;9.394;2023-06-22T15:26:15;34.70;66.10
10468;DHT22;5281;48.878;9.394;2023-06-22T15:28:41;34.50;66.50
10468;DHT22;5281;48.878;9.394;2023-06-22T15:31:08;34.40;66.90
10468;DHT22;5281;48.878;9.394;2023-06-22T15:33:36;34.30;67.20
10468;DHT22;5281;48.878;9.394;2023-06-22T15:36:03;34.30;66.50
10468;DHT22;5281;48.878;9.394;2023-06-22T15:38:32;34.20;66.10
10468;DHT22;5281;48.878;9.394;2023-06-22T15:40:59;34.10;66.00
10468;DHT22;5281;48.878;9.394;2023-06-22T15:43:25;34.10;64.70
10468;DHT22;5281;48.878;9.394;2023-06-22T15:45:52;34.00;60.90